KHYS/HYS METAR and TAF weather

Enter ICAO airport designator
Station Type Date Time Source
KHYS METAR 2019/06/19 05:56 UTC NOAA

KHYS 190556Z AUTO 06006KT 10SM OVC007 17/17 A2990 RMK AO2 SLP116 60001 T01720167 10211 20172 402170172 50003


Station Type Date Time Source
KHYS Decoded METAR 2019/06/19 05:56 UTC NOAA

Hays, Hays Regional Airport, KS, United States (KHYS) 38-51N 099-16W
Jun 19, 2019 - 01:56 AM EDT / 2019.06.19 0556 UTC
Wind: from the ENE (060 degrees) at 7 MPH (6 KT):0
Visibility: 10 mile(s):0
Sky conditions: overcast
Temperature: 63.0 F (17.2 C)
Dew Point: 62.1 F (16.7 C)
Relative Humidity: 96%
Pressure (altimeter): 29.9 in. Hg (1012 hPa)
Pressure tendency: 0.01 inches (0.3 hPa) higher than three hours ago
ob: KHYS 190556Z AUTO 06006KT 10SM OVC007 17/17 A2990 RMK AO2 SLP116 60001 T01720167 10211 20172 402170172 50003
cycle: 6

Station Type Date Time Source
KHYS TAF 2019/06/19 06:48 UTC NOAA

TAF KHYS 190546Z 1906/2006 VRB06KT P6SM BKN007
FM191000 VRB05KT 2SM BR BKN003
FM191400 VRB06KT P6SM SCT010

Example: see airport list